Terminal Aerodrome Forecast
Issued by NWS Tulsa, OK

Home | Current Version | Previous Version | Text Only | Print | Product List | Glossary On
Versions: 1 2 3 4 5 6 7 8 9 10 11 12
000
FTUS44 KTSA 051700
TAFFSM
TAF
KFSM 051720Z 0518/0618 15010KT P6SM VCTS BKN050CB
     FM060000 11008KT P6SM SCT050 BKN250
     FM060800 08010KT P6SM VCTS BKN050CB
      TEMPO 0608/0612 6SM -TSRA BKN050CB
     FM061200 10010KT 4SM -SHRA OVC035=

USA.gov is the U.S. government's official web portal to all federal, state and local government web resources and services.